sensor_id;sensor_type;location;lat;lon;timestamp;temperature;humidity
66586;SHT30;53444;45.822;16.092;2024-03-06T00:02:19;10.19;79.05
66586;SHT30;53444;45.822;16.092;2024-03-06T00:04:45;10.16;79.34
66586;SHT30;53444;45.822;16.092;2024-03-06T00:07:12;10.17;79.24
66586;SHT30;53444;45.822;16.092;2024-03-06T00:09:40;10.19;79.13
66586;SHT30;53444;45.822;16.092;2024-03-06T00:12:07;10.19;79.14
66586;SHT30;53444;45.822;16.092;2024-03-06T00:14:33;10.10;79.42
66586;SHT30;53444;45.822;16.092;2024-03-06T00:17:02;10.06;79.74
66586;SHT30;53444;45.822;16.092;2024-03-06T00:19:30;9.98;80.02
66586;SHT30;53444;45.822;16.092;2024-03-06T00:21:56;9.92;80.13
66586;SHT30;53444;45.822;16.092;2024-03-06T00:24:23;9.92;80.16
66586;SHT30;53444;45.822;16.092;2024-03-06T00:26:51;9.85;80.47
66586;SHT30;53444;45.822;16.092;2024-03-06T00:29:17;9.89;80.28
66586;SHT30;53444;45.822;16.092;2024-03-06T00:31:45;9.82;80.41
66586;SHT30;53444;45.822;16.092;2024-03-06T00:34:12;9.78;80.56
66586;SHT30;53444;45.822;16.092;2024-03-06T00:36:40;9.77;80.46
66586;SHT30;53444;45.822;16.092;2024-03-06T00:39:07;9.61;80.82
66586;SHT30;53444;45.822;16.092;2024-03-06T00:41:34;9.59;80.79
66586;SHT30;53444;45.822;16.092;2024-03-06T00:44:03;9.68;80.78
66586;SHT30;53444;45.822;16.092;2024-03-06T00:46:29;9.40;81.55
66586;SHT30;53444;45.822;16.092;2024-03-06T00:48:56;9.35;81.86
66586;SHT30;53444;45.822;16.092;2024-03-06T00:51:23;9.13;82.46
66586;SHT30;53444;45.822;16.092;2024-03-06T00:53:49;9.12;82.58
66586;SHT30;53444;45.822;16.092;2024-03-06T00:56:16;9.16;82.68
66586;SHT30;53444;45.822;16.092;2024-03-06T00:58:42;9.27;82.26
66586;SHT30;53444;45.822;16.092;2024-03-06T01:01:10;9.27;81.98
66586;SHT30;53444;45.822;16.092;2024-03-06T01:03:37;9.30;82.06
66586;SHT30;53444;45.822;16.092;2024-03-06T01:06:04;9.33;81.96
66586;SHT30;53444;45.822;16.092;2024-03-06T01:08:31;9.30;81.88
66586;SHT30;53444;45.822;16.092;2024-03-06T01:10:57;9.26;82.17
66586;SHT30;53444;45.822;16.092;2024-03-06T01:13:24;9.17;82.08
66586;SHT30;53444;45.822;16.092;2024-03-06T01:15:51;9.09;82.46
66586;SHT30;53444;45.822;16.092;2024-03-06T01:18:19;9.12;82.40
66586;SHT30;53444;45.822;16.092;2024-03-06T01:20:45;9.04;82.52
66586;SHT30;53444;45.822;16.092;2024-03-06T01:23:12;9.12;82.48
66586;SHT30;53444;45.822;16.092;2024-03-06T01:25:39;9.04;82.67
66586;SHT30;53444;45.822;16.092;2024-03-06T01:28:06;9.09;82.53
66586;SHT30;53444;45.822;16.092;2024-03-06T01:30:32;9.14;82.27
66586;SHT30;53444;45.822;16.092;2024-03-06T01:32:59;9.07;82.30
66586;SHT30;53444;45.822;16.092;2024-03-06T01:35:27;9.10;82.47
66586;SHT30;53444;45.822;16.092;2024-03-06T01:37:53;9.10;82.50
66586;SHT30;53444;45.822;16.092;2024-03-06T01:40:20;9.10;82.43
66586;SHT30;53444;45.822;16.092;2024-03-06T01:42:47;9.06;83.03
66586;SHT30;53444;45.822;16.092;2024-03-06T01:45:14;9.07;82.83
66586;SHT30;53444;45.822;16.092;2024-03-06T01:47:41;9.10;82.71
66586;SHT30;53444;45.822;16.092;2024-03-06T01:50:09;9.10;82.69
66586;SHT30;53444;45.822;16.092;2024-03-06T01:52:38;9.12;82.56
66586;SHT30;53444;45.822;16.092;2024-03-06T01:55:06;9.14;82.46
66586;SHT30;53444;45.822;16.092;2024-03-06T01:57:34;9.16;82.63
66586;SHT30;53444;45.822;16.092;2024-03-06T02:00:01;9.19;82.57
66586;SHT30;53444;45.822;16.092;2024-03-06T02:02:28;9.16;82.64
66586;SHT30;53444;45.822;16.092;2024-03-06T02:04:55;9.22;82.45
66586;SHT30;53444;45.822;16.092;2024-03-06T02:07:24;9.23;82.49
66586;SHT30;53444;45.822;16.092;2024-03-06T02:09:52;9.28;82.46
66586;SHT30;53444;45.822;16.092;2024-03-06T02:12:19;9.35;82.26
66586;SHT30;53444;45.822;16.092;2024-03-06T02:14:45;9.38;82.24
66586;SHT30;53444;45.822;16.092;2024-03-06T02:17:12;9.34;82.35
66586;SHT30;53444;45.822;16.092;2024-03-06T02:19:39;9.44;82.12
66586;SHT30;53444;45.822;16.092;2024-03-06T02:22:08;9.44;82.09
66586;SHT30;53444;45.822;16.092;2024-03-06T02:24:33;9.31;82.55
66586;SHT30;53444;45.822;16.092;2024-03-06T02:27:00;9.41;82.30
66586;SHT30;53444;45.822;16.092;2024-03-06T02:29:27;9.50;82.07
66586;SHT30;53444;45.822;16.092;2024-03-06T02:31:53;9.58;81.90
66586;SHT30;53444;45.822;16.092;2024-03-06T02:34:20;9.57;82.08
66586;SHT30;53444;45.822;16.092;2024-03-06T02:36:47;9.58;82.07
66586;SHT30;53444;45.822;16.092;2024-03-06T02:39:15;9.59;82.00
66586;SHT30;53444;45.822;16.092;2024-03-06T02:41:41;9.61;82.12
66586;SHT30;53444;45.822;16.092;2024-03-06T02:44:08;9.67;81.91
66586;SHT30;53444;45.822;16.092;2024-03-06T02:46:35;9.67;81.91
66586;SHT30;53444;45.822;16.092;2024-03-06T02:49:01;9.68;81.98
66586;SHT30;53444;45.822;16.092;2024-03-06T02:51:28;9.59;82.28
66586;SHT30;53444;45.822;16.092;2024-03-06T02:53:54;9.65;82.13
66586;SHT30;53444;45.822;16.092;2024-03-06T02:56:22;9.65;82.12
66586;SHT30;53444;45.822;16.092;2024-03-06T02:58:49;9.67;82.22
66586;SHT30;53444;45.822;16.092;2024-03-06T03:01:16;9.67;82.33
66586;SHT30;53444;45.822;16.092;2024-03-06T03:03:42;9.59;82.52
66586;SHT30;53444;45.822;16.092;2024-03-06T03:06:09;9.61;82.49
66586;SHT30;53444;45.822;16.092;2024-03-06T03:08:36;9.58;82.20
66586;SHT30;53444;45.822;16.092;2024-03-06T03:11:03;9.54;82.52
66586;SHT30;53444;45.822;16.092;2024-03-06T03:13:31;9.50;82.79
66586;SHT30;53444;45.822;16.092;2024-03-06T03:15:58;9.44;82.86
66586;SHT30;53444;45.822;16.092;2024-03-06T03:18:24;9.51;82.72
66586;SHT30;53444;45.822;16.092;2024-03-06T03:20:52;9.51;82.51
66586;SHT30;53444;45.822;16.092;2024-03-06T03:23:18;9.47;82.66
66586;SHT30;53444;45.822;16.092;2024-03-06T03:25:47;9.45;82.65
66586;SHT30;53444;45.822;16.092;2024-03-06T03:28:14;9.47;82.65
66586;SHT30;53444;45.822;16.092;2024-03-06T03:30:44;9.43;82.67
66586;SHT30;53444;45.822;16.092;2024-03-06T03:33:11;9.41;82.56
66586;SHT30;53444;45.822;16.092;2024-03-06T03:35:37;9.35;82.75
66586;SHT30;53444;45.822;16.092;2024-03-06T03:38:04;9.34;82.74
66586;SHT30;53444;45.822;16.092;2024-03-06T03:40:31;9.30;82.75
66586;SHT30;53444;45.822;16.092;2024-03-06T03:42:58;9.26;82.79
66586;SHT30;53444;45.822;16.092;2024-03-06T03:45:31;9.30;82.67
66586;SHT30;53444;45.822;16.092;2024-03-06T03:48:00;9.30;82.70
66586;SHT30;53444;45.822;16.092;2024-03-06T03:50:27;9.33;82.61
66586;SHT30;53444;45.822;16.092;2024-03-06T03:52:54;9.33;82.62
66586;SHT30;53444;45.822;16.092;2024-03-06T03:55:23;9.31;82.58
66586;SHT30;53444;45.822;16.092;2024-03-06T03:57:50;9.26;82.65
66586;SHT30;53444;45.822;16.092;2024-03-06T04:00:17;9.19;82.89
66586;SHT30;53444;45.822;16.092;2024-03-06T04:02:44;9.24;83.18
66586;SHT30;53444;45.822;16.092;2024-03-06T04:05:12;9.27;82.93
66586;SHT30;53444;45.822;16.092;2024-03-06T04:07:39;9.27;83.10
66586;SHT30;53444;45.822;16.092;2024-03-06T04:10:07;9.24;83.14
66586;SHT30;53444;45.822;16.092;2024-03-06T04:12:36;9.33;82.98
66586;SHT30;53444;45.822;16.092;2024-03-06T04:15:03;9.37;82.92
66586;SHT30;53444;45.822;16.092;2024-03-06T04:17:30;9.43;82.77
66586;SHT30;53444;45.822;16.092;2024-03-06T04:19:57;9.47;82.48
66586;SHT30;53444;45.822;16.092;2024-03-06T04:22:25;9.47;82.53
66586;SHT30;53444;45.822;16.092;2024-03-06T04:24:51;9.52;82.23
66586;SHT30;53444;45.822;16.092;2024-03-06T04:27:18;9.57;82.19
66586;SHT30;53444;45.822;16.092;2024-03-06T04:29:45;9.58;82.04
66586;SHT30;53444;45.822;16.092;2024-03-06T04:32:11;9.61;81.88
66586;SHT30;53444;45.822;16.092;2024-03-06T04:34:38;9.61;82.11
66586;SHT30;53444;45.822;16.092;2024-03-06T04:37:05;9.64;82.00
66586;SHT30;53444;45.822;16.092;2024-03-06T04:39:33;9.61;81.94
66586;SHT30;53444;45.822;16.092;2024-03-06T04:42:00;9.64;81.87
66586;SHT30;53444;45.822;16.092;2024-03-06T04:44:27;9.67;81.73
66586;SHT30;53444;45.822;16.092;2024-03-06T04:46:54;9.65;81.94
66586;SHT30;53444;45.822;16.092;2024-03-06T04:49:21;9.64;81.97
66586;SHT30;53444;45.822;16.092;2024-03-06T04:51:48;9.70;81.74
66586;SHT30;53444;45.822;16.092;2024-03-06T04:54:14;9.62;82.00
66586;SHT30;53444;45.822;16.092;2024-03-06T04:56:42;9.61;82.09
66586;SHT30;53444;45.822;16.092;2024-03-06T04:59:09;9.64;82.15
66586;SHT30;53444;45.822;16.092;2024-03-06T05:01:35;9.61;82.08
66586;SHT30;53444;45.822;16.092;2024-03-06T05:04:02;9.68;82.21
66586;SHT30;53444;45.822;16.092;2024-03-06T05:06:29;9.65;82.28
66586;SHT30;53444;45.822;16.092;2024-03-06T05:08:56;9.65;82.17
66586;SHT30;53444;45.822;16.092;2024-03-06T05:11:22;9.61;82.57
66586;SHT30;53444;45.822;16.092;2024-03-06T05:13:50;9.64;82.35
66586;SHT30;53444;45.822;16.092;2024-03-06T05:16:17;9.64;82.34
66586;SHT30;53444;45.822;16.092;2024-03-06T05:18:44;9.62;82.43
66586;SHT30;53444;45.822;16.092;2024-03-06T05:21:10;9.65;82.32
66586;SHT30;53444;45.822;16.092;2024-03-06T05:23:37;9.65;82.61
66586;SHT30;53444;45.822;16.092;2024-03-06T05:26:04;9.62;82.36
66586;SHT30;53444;45.822;16.092;2024-03-06T05:28:31;9.65;82.53
66586;SHT30;53444;45.822;16.092;2024-03-06T05:30:59;9.58;82.88
66586;SHT30;53444;45.822;16.092;2024-03-06T05:33:27;9.59;82.70
66586;SHT30;53444;45.822;16.092;2024-03-06T05:35:55;9.64;82.55
66586;SHT30;53444;45.822;16.092;2024-03-06T05:38:22;9.54;82.83
66586;SHT30;53444;45.822;16.092;2024-03-06T05:40:48;9.55;82.99
66586;SHT30;53444;45.822;16.092;2024-03-06T05:43:15;9.50;83.16
66586;SHT30;53444;45.822;16.092;2024-03-06T05:45:42;9.55;83.03
66586;SHT30;53444;45.822;16.092;2024-03-06T05:48:10;9.55;83.02
66586;SHT30;53444;45.822;16.092;2024-03-06T05:50:37;9.51;83.09
66586;SHT30;53444;45.822;16.092;2024-03-06T05:53:04;9.55;83.06
66586;SHT30;53444;45.822;16.092;2024-03-06T05:55:30;9.51;83.13
66586;SHT30;53444;45.822;16.092;2024-03-06T05:57:57;9.50;83.20
66586;SHT30;53444;45.822;16.092;2024-03-06T06:00:25;9.50;83.02
66586;SHT30;53444;45.822;16.092;2024-03-06T06:02:51;9.51;83.02
66586;SHT30;53444;45.822;16.092;2024-03-06T06:05:19;9.51;83.17
66586;SHT30;53444;45.822;16.092;2024-03-06T06:07:48;9.48;83.15
66586;SHT30;53444;45.822;16.092;2024-03-06T06:10:15;9.51;83.18
66586;SHT30;53444;45.822;16.092;2024-03-06T06:12:44;9.54;83.24
66586;SHT30;53444;45.822;16.092;2024-03-06T06:15:11;9.59;83.08
66586;SHT30;53444;45.822;16.092;2024-03-06T06:17:38;9.58;83.19
66586;SHT30;53444;45.822;16.092;2024-03-06T06:20:09;9.67;82.91
66586;SHT30;53444;45.822;16.092;2024-03-06T06:22:41;9.73;82.80
66586;SHT30;53444;45.822;16.092;2024-03-06T06:25:08;9.78;82.32
66586;SHT30;53444;45.822;16.092;2024-03-06T06:27:35;9.79;82.64
66586;SHT30;53444;45.822;16.092;2024-03-06T06:30:05;9.91;82.32
66586;SHT30;53444;45.822;16.092;2024-03-06T06:32:41;9.99;81.88
66586;SHT30;53444;45.822;16.092;2024-03-06T06:35:09;10.09;81.63
66586;SHT30;53444;45.822;16.092;2024-03-06T06:37:37;10.13;81.46
66586;SHT30;53444;45.822;16.092;2024-03-06T06:40:09;10.25;81.62
66586;SHT30;53444;45.822;16.092;2024-03-06T06:42:44;10.33;81.31
66586;SHT30;53444;45.822;16.092;2024-03-06T06:45:12;10.46;80.63
66586;SHT30;53444;45.822;16.092;2024-03-06T06:47:39;10.42;80.75
66586;SHT30;53444;45.822;16.092;2024-03-06T06:50:06;10.43;80.62
66586;SHT30;53444;45.822;16.092;2024-03-06T06:52:34;10.60;80.25
66586;SHT30;53444;45.822;16.092;2024-03-06T06:55:01;10.63;80.09
66586;SHT30;53444;45.822;16.092;2024-03-06T06:57:32;10.60;80.23
66586;SHT30;53444;45.822;16.092;2024-03-06T06:59:59;10.60;80.08
66586;SHT30;53444;45.822;16.092;2024-03-06T07:02:26;10.68;79.82
66586;SHT30;53444;45.822;16.092;2024-03-06T07:04:53;10.73;80.18
66586;SHT30;53444;45.822;16.092;2024-03-06T07:07:21;10.77;79.50
66586;SHT30;53444;45.822;16.092;2024-03-06T07:09:48;10.74;79.86
66586;SHT30;53444;45.822;16.092;2024-03-06T07:12:22;10.85;79.77
66586;SHT30;53444;45.822;16.092;2024-03-06T07:14:51;10.87;79.29
66586;SHT30;53444;45.822;16.092;2024-03-06T07:17:21;10.98;79.10
66586;SHT30;53444;45.822;16.092;2024-03-06T07:19:52;10.94;79.06
66586;SHT30;53444;45.822;16.092;2024-03-06T07:22:22;11.06;78.62
66586;SHT30;53444;45.822;16.092;2024-03-06T07:24:50;11.14;78.35
66586;SHT30;53444;45.822;16.092;2024-03-06T07:27:20;11.25;78.02
66586;SHT30;53444;45.822;16.092;2024-03-06T07:29:49;11.45;77.75
66586;SHT30;53444;45.822;16.092;2024-03-06T07:32:20;11.43;77.26
66586;SHT30;53444;45.822;16.092;2024-03-06T07:34:47;11.56;76.99
66586;SHT30;53444;45.822;16.092;2024-03-06T07:37:14;11.35;77.12
66586;SHT30;53444;45.822;16.092;2024-03-06T07:39:42;11.36;77.54
66586;SHT30;53444;45.822;16.092;2024-03-06T07:42:09;11.43;77.43
66586;SHT30;53444;45.822;16.092;2024-03-06T07:44:36;11.54;76.86
66586;SHT30;53444;45.822;16.092;2024-03-06T07:47:03;11.58;76.65
66586;SHT30;53444;45.822;16.092;2024-03-06T07:49:31;11.70;76.72
66586;SHT30;53444;45.822;16.092;2024-03-06T07:51:58;11.89;76.14
66586;SHT30;53444;45.822;16.092;2024-03-06T07:54:24;11.80;76.04
66586;SHT30;53444;45.822;16.092;2024-03-06T07:56:51;11.78;75.80
66586;SHT30;53444;45.822;16.092;2024-03-06T07:59:21;11.62;75.73
66586;SHT30;53444;45.822;16.092;2024-03-06T08:01:49;11.61;75.47
66586;SHT30;53444;45.822;16.092;2024-03-06T08:04:16;11.55;76.26
66586;SHT30;53444;45.822;16.092;2024-03-06T08:06:44;11.68;75.70
66586;SHT30;53444;45.822;16.092;2024-03-06T08:09:11;11.68;76.42
66586;SHT30;53444;45.822;16.092;2024-03-06T08:11:38;11.82;76.07
66586;SHT30;53444;45.822;16.092;2024-03-06T08:14:06;11.82;76.03
66586;SHT30;53444;45.822;16.092;2024-03-06T08:16:33;11.86;75.54
66586;SHT30;53444;45.822;16.092;2024-03-06T08:19:00;11.86;75.78
66586;SHT30;53444;45.822;16.092;2024-03-06T08:21:28;11.85;75.94
66586;SHT30;53444;45.822;16.092;2024-03-06T08:23:57;11.87;75.86
66586;SHT30;53444;45.822;16.092;2024-03-06T08:26:23;11.80;75.24
66586;SHT30;53444;45.822;16.092;2024-03-06T08:28:50;11.86;75.23
66586;SHT30;53444;45.822;16.092;2024-03-06T08:31:18;11.87;75.01
66586;SHT30;53444;45.822;16.092;2024-03-06T08:33:46;11.79;74.96
66586;SHT30;53444;45.822;16.092;2024-03-06T08:36:13;12.00;74.66
66586;SHT30;53444;45.822;16.092;2024-03-06T08:38:40;11.91;74.88
66586;SHT30;53444;45.822;16.092;2024-03-06T08:41:08;11.94;75.31
66586;SHT30;53444;45.822;16.092;2024-03-06T08:43:35;12.19;74.60
66586;SHT30;53444;45.822;16.092;2024-03-06T08:46:01;12.33;74.51
66586;SHT30;53444;45.822;16.092;2024-03-06T08:48:28;12.33;74.33
66586;SHT30;53444;45.822;16.092;2024-03-06T08:50:55;12.52;73.82
66586;SHT30;53444;45.822;16.092;2024-03-06T08:53:21;12.75;73.48
66586;SHT30;53444;45.822;16.092;2024-03-06T08:55:48;12.74;73.14
66586;SHT30;53444;45.822;16.092;2024-03-06T08:58:16;12.78;73.11
66586;SHT30;53444;45.822;16.092;2024-03-06T09:00:45;12.75;73.60
66586;SHT30;53444;45.822;16.092;2024-03-06T09:03:13;12.69;73.39
66586;SHT30;53444;45.822;16.092;2024-03-06T09:05:41;12.77;73.06
66586;SHT30;53444;45.822;16.092;2024-03-06T09:08:07;12.67;72.70
66586;SHT30;53444;45.822;16.092;2024-03-06T09:10:34;12.88;72.19
66586;SHT30;53444;45.822;16.092;2024-03-06T09:13:01;12.91;72.15
66586;SHT30;53444;45.822;16.092;2024-03-06T09:15:29;13.09;72.23
66586;SHT30;53444;45.822;16.092;2024-03-06T09:17:56;13.33;72.13
66586;SHT30;53444;45.822;16.092;2024-03-06T09:20:22;13.27;71.61
66586;SHT30;53444;45.822;16.092;2024-03-06T09:22:50;13.43;70.96
66586;SHT30;53444;45.822;16.092;2024-03-06T09:25:22;13.19;71.45
66586;SHT30;53444;45.822;16.092;2024-03-06T09:27:49;13.24;71.31
66586;SHT30;53444;45.822;16.092;2024-03-06T09:30:15;13.06;71.37
66586;SHT30;53444;45.822;16.092;2024-03-06T09:32:44;13.38;72.03
66586;SHT30;53444;45.822;16.092;2024-03-06T09:35:10;13.56;70.71
66586;SHT30;53444;45.822;16.092;2024-03-06T09:37:37;13.49;71.21
66586;SHT30;53444;45.822;16.092;2024-03-06T09:40:05;13.66;70.50
66586;SHT30;53444;45.822;16.092;2024-03-06T09:42:33;13.67;70.68
66586;SHT30;53444;45.822;16.092;2024-03-06T09:45:00;13.98;69.80
66586;SHT30;53444;45.822;16.092;2024-03-06T09:47:28;13.94;69.50
66586;SHT30;53444;45.822;16.092;2024-03-06T09:50:15;14.10;70.09
66586;SHT30;53444;45.822;16.092;2024-03-06T09:52:43;14.03;69.64
66586;SHT30;53444;45.822;16.092;2024-03-06T09:55:11;14.20;69.76
66586;SHT30;53444;45.822;16.092;2024-03-06T09:57:40;14.34;68.89
66586;SHT30;53444;45.822;16.092;2024-03-06T10:00:08;14.11;68.68
66586;SHT30;53444;45.822;16.092;2024-03-06T10:02:39;14.32;68.81
66586;SHT30;53444;45.822;16.092;2024-03-06T10:05:20;14.41;68.36
66586;SHT30;53444;45.822;16.092;2024-03-06T10:07:47;14.58;68.46
66586;SHT30;53444;45.822;16.092;2024-03-06T10:10:14;14.55;67.80
66586;SHT30;53444;45.822;16.092;2024-03-06T10:12:42;14.69;67.85
66586;SHT30;53444;45.822;16.092;2024-03-06T10:15:13;14.73;67.65
66586;SHT30;53444;45.822;16.092;2024-03-06T10:17:40;15.04;67.80
66586;SHT30;53444;45.822;16.092;2024-03-06T10:20:17;14.92;67.41
66586;SHT30;53444;45.822;16.092;2024-03-06T10:22:47;14.72;66.66
66586;SHT30;53444;45.822;16.092;2024-03-06T10:25:15;14.72;67.12
66586;SHT30;53444;45.822;16.092;2024-03-06T10:27:41;15.28;66.23
66586;SHT30;53444;45.822;16.092;2024-03-06T10:30:09;15.44;65.60
66586;SHT30;53444;45.822;16.092;2024-03-06T10:32:38;15.43;65.03
66586;SHT30;53444;45.822;16.092;2024-03-06T10:35:06;15.36;64.51
66586;SHT30;53444;45.822;16.092;2024-03-06T10:37:34;15.28;64.16
66586;SHT30;53444;45.822;16.092;2024-03-06T10:40:04;15.14;65.23
66586;SHT30;53444;45.822;16.092;2024-03-06T10:42:33;15.54;64.36
66586;SHT30;53444;45.822;16.092;2024-03-06T10:45:02;15.69;63.77
66586;SHT30;53444;45.822;16.092;2024-03-06T10:47:30;15.84;62.80
66586;SHT30;53444;45.822;16.092;2024-03-06T10:49:59;15.94;63.30
66586;SHT30;53444;45.822;16.092;2024-03-06T10:52:27;16.25;63.18
66586;SHT30;53444;45.822;16.092;2024-03-06T10:54:54;16.12;62.07
66586;SHT30;53444;45.822;16.092;2024-03-06T10:57:25;15.71;62.55
66586;SHT30;53444;45.822;16.092;2024-03-06T10:59:52;16.29;62.45
66586;SHT30;53444;45.822;16.092;2024-03-06T11:02:20;16.50;61.36
66586;SHT30;53444;45.822;16.092;2024-03-06T11:04:48;16.73;61.30
66586;SHT30;53444;45.822;16.092;2024-03-06T11:07:14;16.94;61.00
66586;SHT30;53444;45.822;16.092;2024-03-06T11:09:41;17.06;60.29
66586;SHT30;53444;45.822;16.092;2024-03-06T11:12:08;17.29;59.88
66586;SHT30;53444;45.822;16.092;2024-03-06T11:14:38;17.15;59.86
66586;SHT30;53444;45.822;16.092;2024-03-06T11:17:07;17.62;59.31
66586;SHT30;53444;45.822;16.092;2024-03-06T11:20:08;17.22;59.01
66586;SHT30;53444;45.822;16.092;2024-03-06T11:23:03;16.53;59.83
66586;SHT30;53444;45.822;16.092;2024-03-06T11:25:59;16.13;61.41
66586;SHT30;53444;45.822;16.092;2024-03-06T11:28:29;16.32;60.65
66586;SHT30;53444;45.822;16.092;2024-03-06T11:30:58;17.00;60.77
66586;SHT30;53444;45.822;16.092;2024-03-06T11:33:34;17.24;60.45
66586;SHT30;53444;45.822;16.092;2024-03-06T11:36:17;17.49;59.73
66586;SHT30;53444;45.822;16.092;2024-03-06T11:38:53;17.78;59.17
66586;SHT30;53444;45.822;16.092;2024-03-06T11:41:22;17.56;59.70
66586;SHT30;53444;45.822;16.092;2024-03-06T11:43:50;17.06;58.83
66586;SHT30;53444;45.822;16.092;2024-03-06T11:46:20;17.28;58.48
66586;SHT30;53444;45.822;16.092;2024-03-06T11:48:53;16.55;59.34
66586;SHT30;53444;45.822;16.092;2024-03-06T11:51:21;16.81;58.96
66586;SHT30;53444;45.822;16.092;2024-03-06T11:53:52;16.57;58.89
66586;SHT30;53444;45.822;16.092;2024-03-06T11:56:19;16.74;59.92
66586;SHT30;53444;45.822;16.092;2024-03-06T11:58:47;16.60;59.78
66586;SHT30;53444;45.822;16.092;2024-03-06T12:01:14;16.57;59.42
66586;SHT30;53444;45.822;16.092;2024-03-06T12:03:42;16.88;59.56
66586;SHT30;53444;45.822;16.092;2024-03-06T12:06:10;17.00;59.16
66586;SHT30;53444;45.822;16.092;2024-03-06T12:08:38;17.12;59.31
66586;SHT30;53444;45.822;16.092;2024-03-06T12:11:05;17.15;60.00
66586;SHT30;53444;45.822;16.092;2024-03-06T12:13:33;17.46;58.65
66586;SHT30;53444;45.822;16.092;2024-03-06T12:16:04;17.29;58.73
66586;SHT30;53444;45.822;16.092;2024-03-06T12:18:32;17.17;59.27
66586;SHT30;53444;45.822;16.092;2024-03-06T12:21:02;17.78;58.68
66586;SHT30;53444;45.822;16.092;2024-03-06T12:23:29;17.89;57.75
66586;SHT30;53444;45.822;16.092;2024-03-06T12:26:04;18.04;57.84
66586;SHT30;53444;45.822;16.092;2024-03-06T12:28:32;18.24;56.91
66586;SHT30;53444;45.822;16.092;2024-03-06T12:31:02;18.50;56.75
66586;SHT30;53444;45.822;16.092;2024-03-06T12:33:29;18.57;57.09
66586;SHT30;53444;45.822;16.092;2024-03-06T12:36:05;18.17;56.22
66586;SHT30;53444;45.822;16.092;2024-03-06T12:38:32;17.93;55.98
66586;SHT30;53444;45.822;16.092;2024-03-06T12:40:59;17.83;56.98
66586;SHT30;53444;45.822;16.092;2024-03-06T12:43:26;17.65;57.26
66586;SHT30;53444;45.822;16.092;2024-03-06T12:45:54;18.07;57.00
66586;SHT30;53444;45.822;16.092;2024-03-06T12:48:22;18.14;56.38
66586;SHT30;53444;45.822;16.092;2024-03-06T12:50:49;17.92;57.12
66586;SHT30;53444;45.822;16.092;2024-03-06T12:53:19;18.43;55.93
66586;SHT30;53444;45.822;16.092;2024-03-06T12:55:46;18.79;56.25
66586;SHT30;53444;45.822;16.092;2024-03-06T12:58:13;18.43;56.50
66586;SHT30;53444;45.822;16.092;2024-03-06T13:00:40;18.64;55.91
66586;SHT30;53444;45.822;16.092;2024-03-06T13:03:07;18.58;56.11
66586;SHT30;53444;45.822;16.092;2024-03-06T13:05:35;18.44;56.04
66586;SHT30;53444;45.822;16.092;2024-03-06T13:08:02;18.64;55.36
66586;SHT30;53444;45.822;16.092;2024-03-06T13:10:31;18.75;55.12
66586;SHT30;53444;45.822;16.092;2024-03-06T13:12:58;18.04;56.13
66586;SHT30;53444;45.822;16.092;2024-03-06T13:15:25;17.72;56.19
66586;SHT30;53444;45.822;16.092;2024-03-06T13:17:52;17.73;56.65
66586;SHT30;53444;45.822;16.092;2024-03-06T13:20:19;17.29;56.98
66586;SHT30;53444;45.822;16.092;2024-03-06T13:22:46;17.06;58.46
66586;SHT30;53444;45.822;16.092;2024-03-06T13:25:13;17.00;57.99
66586;SHT30;53444;45.822;16.092;2024-03-06T13:27:41;16.87;57.84
66586;SHT30;53444;45.822;16.092;2024-03-06T13:30:09;17.46;56.84
66586;SHT30;53444;45.822;16.092;2024-03-06T13:32:37;17.83;57.02
66586;SHT30;53444;45.822;16.092;2024-03-06T13:35:05;17.83;56.36
66586;SHT30;53444;45.822;16.092;2024-03-06T13:37:34;18.27;55.07
66586;SHT30;53444;45.822;16.092;2024-03-06T13:40:01;18.68;54.81
66586;SHT30;53444;45.822;16.092;2024-03-06T13:42:28;18.48;54.36
66586;SHT30;53444;45.822;16.092;2024-03-06T13:44:56;18.65;53.71
66586;SHT30;53444;45.822;16.092;2024-03-06T13:47:22;18.75;53.45
66586;SHT30;53444;45.822;16.092;2024-03-06T13:49:49;18.68;53.61
66586;SHT30;53444;45.822;16.092;2024-03-06T13:52:16;18.95;52.92
66586;SHT30;53444;45.822;16.092;2024-03-06T13:54:46;19.26;52.16
66586;SHT30;53444;45.822;16.092;2024-03-06T13:57:13;19.03;52.96
66586;SHT30;53444;45.822;16.092;2024-03-06T13:59:40;19.02;52.56
66586;SHT30;53444;45.822;16.092;2024-03-06T14:02:09;19.02;53.26
66586;SHT30;53444;45.822;16.092;2024-03-06T14:04:36;18.95;53.73
66586;SHT30;53444;45.822;16.092;2024-03-06T14:07:03;18.79;53.47
66586;SHT30;53444;45.822;16.092;2024-03-06T14:09:30;18.76;53.46
66586;SHT30;53444;45.822;16.092;2024-03-06T14:11:57;18.40;54.00
66586;SHT30;53444;45.822;16.092;2024-03-06T14:14:24;18.43;54.03
66586;SHT30;53444;45.822;16.092;2024-03-06T14:16:50;18.45;54.68
66586;SHT30;53444;45.822;16.092;2024-03-06T14:19:18;19.09;54.01
66586;SHT30;53444;45.822;16.092;2024-03-06T14:21:47;19.06;54.06
66586;SHT30;53444;45.822;16.092;2024-03-06T14:24:13;18.96;53.92
66586;SHT30;53444;45.822;16.092;2024-03-06T14:26:40;18.72;54.11
66586;SHT30;53444;45.822;16.092;2024-03-06T14:29:07;18.21;54.87
66586;SHT30;53444;45.822;16.092;2024-03-06T14:31:35;18.04;55.58
66586;SHT30;53444;45.822;16.092;2024-03-06T14:34:01;17.66;55.93
66586;SHT30;53444;45.822;16.092;2024-03-06T14:36:30;17.42;56.48
66586;SHT30;53444;45.822;16.092;2024-03-06T14:38:57;16.91;57.15
66586;SHT30;53444;45.822;16.092;2024-03-06T14:41:24;16.64;57.14
66586;SHT30;53444;45.822;16.092;2024-03-06T14:43:50;16.71;56.89
66586;SHT30;53444;45.822;16.092;2024-03-06T14:46:17;16.55;57.39
66586;SHT30;53444;45.822;16.092;2024-03-06T14:48:44;16.56;57.08
66586;SHT30;53444;45.822;16.092;2024-03-06T14:51:11;16.02;58.20
66586;SHT30;53444;45.822;16.092;2024-03-06T14:53:40;15.91;58.28
66586;SHT30;53444;45.822;16.092;2024-03-06T14:56:07;15.62;59.70
66586;SHT30;53444;45.822;16.092;2024-03-06T14:58:36;15.65;59.76
66586;SHT30;53444;45.822;16.092;2024-03-06T15:01:03;15.69;60.07
66586;SHT30;53444;45.822;16.092;2024-03-06T15:03:30;15.69;59.93
66586;SHT30;53444;45.822;16.092;2024-03-06T15:05:57;15.65;59.78
66586;SHT30;53444;45.822;16.092;2024-03-06T15:08:23;15.43;60.59
66586;SHT30;53444;45.822;16.092;2024-03-06T15:10:51;15.47;60.81
66586;SHT30;53444;45.822;16.092;2024-03-06T15:13:19;15.47;61.17
66586;SHT30;53444;45.822;16.092;2024-03-06T15:15:48;15.53;61.50
66586;SHT30;53444;45.822;16.092;2024-03-06T15:18:15;15.26;61.78
66586;SHT30;53444;45.822;16.092;2024-03-06T15:20:42;15.40;61.59
66586;SHT30;53444;45.822;16.092;2024-03-06T15:23:09;15.47;61.85
66586;SHT30;53444;45.822;16.092;2024-03-06T15:25:36;15.28;61.99
66586;SHT30;53444;45.822;16.092;2024-03-06T15:28:05;15.03;62.33